EKSB/SGD METAR and TAF weather

Enter ICAO airport designator
Station Type Date Time Source
EKSB METAR 2021/03/08 03:20 UTC NOAA

EKSB 080320Z AUTO 33004KT 9999NDV NCD M02/M05 Q1022


Station Type Date Time Source
EKSB Decoded METAR 2021/03/08 03:20 UTC NOAA

Soenderborg Lufthavn, Denmark (EKSB) 54-58N 009-47E 14M
Mar 07, 2021 - 10:20 PM EST / 2021.03.08 0320 UTC
Wind: from the NNW (330 degrees) at 5 MPH (4 KT):0
Temperature: 28 F (-2 C)
Windchill: 23 F (-5 C):1
Dew Point: 23 F (-5 C)
Relative Humidity: 79%
Pressure (altimeter): 30.18 in. Hg (1022 hPa)
ob: EKSB 080320Z AUTO 33004KT 9999NDV NCD M02/M05 Q1022
cycle: 3

Station Type Date Time Source
EKSB TAF 2016/01/27 09:03 UTC NOAA

TAF TAF EKSB 270856Z 2709/2721 23022KT 5000 -RA BR BKN008
TEMPO 2709/2721 24025G40KT 2000 RADZ BKN004

Example: see airport list